Time;durP1;ratioP1;P1;durP2;ratioP2;P2;SDS_P1;SDS_P2;PMS_P1;PMS_P2;Temp;Humidity;BMP_temperature;BMP_pressure;BME280_temperature;BME280_humidity;BME280_pressure;Samples;Min_cycle;Max_cycle;Signal;HPM_P1;HPM_P2
2021/08/01 00:01:20;;;;;;;3.58;1.00;;;;;;;;;;5046646;28;20524;-70
2021/08/01 00:03:47;;;;;;;4.38;1.50;;;;;;;;;;5044907;28;20091;-71
2021/08/01 00:06:14;;;;;;;4.55;1.05;;;;;;;;;;5049639;28;20473;-70
2021/08/01 00:08:41;;;;;;;4.45;1.00;;;;;;;;;;5038166;28;20029;-71
2021/08/01 00:11:09;;;;;;;2.80;0.93;;;;;;;;;;5040167;28;20021;-71
2021/08/01 00:13:36;;;;;;;3.88;0.80;;;;;;;;;;5049216;28;20454;-72
2021/08/01 00:16:03;;;;;;;3.47;0.90;;;;;;;;;;5045731;28;20351;-71
2021/08/01 00:18:30;;;;;;;4.65;0.90;;;;;;;;;;5045195;28;20540;-72
2021/08/01 00:20:57;;;;;;;4.95;1.08;;;;;;;;;;5048990;28;20108;-73
2021/08/01 00:23:25;;;;;;;5.90;1.38;;;;;;;;;;5048889;28;20025;-70
2021/08/01 00:25:52;;;;;;;5.32;1.33;;;;;;;;;;5046766;28;20025;-70
2021/08/01 00:28:19;;;;;;;3.78;0.85;;;;;;;;;;5042094;28;20040;-70
2021/08/01 00:30:46;;;;;;;4.38;1.40;;;;;;;;;;5043786;28;20021;-71
2021/08/01 00:33:13;;;;;;;3.55;1.42;;;;;;;;;;5045623;28;20087;-70
2021/08/01 00:35:40;;;;;;;4.22;1.10;;;;;;;;;;5042997;28;20022;-70
2021/08/01 00:38:08;;;;;;;4.43;1.17;;;;;;;;;;5054089;28;20085;-70
2021/08/01 00:40:35;;;;;;;4.80;1.70;;;;;;;;;;5052661;28;20194;-71
2021/08/01 00:43:02;;;;;;;2.60;0.90;;;;;;;;;;5033137;28;20068;-70
2021/08/01 00:45:29;;;;;;;6.28;1.15;;;;;;;;;;5031541;28;20056;-71
2021/08/01 00:47:56;;;;;;;4.30;1.65;;;;;;;;;;5031851;28;20066;-71
2021/08/01 00:50:23;;;;;;;4.75;1.15;;;;;;;;;;5031914;28;20040;-70
2021/08/01 00:52:51;;;;;;;3.78;0.80;;;;;;;;;;5031701;28;20470;-70
2021/08/01 00:55:18;;;;;;;8.00;1.23;;;;;;;;;;5071950;28;20474;-71
2021/08/01 00:57:45;;;;;;;4.20;1.45;;;;;;;;;;5069060;28;20426;-70
2021/08/01 01:03:01;;;;;;;3.25;1.02;;;;;;;;;;5067914;28;20056;-71
2021/08/01 01:05:32;;;;;;;2.97;0.80;;;;;;;;;;5070020;28;20370;-71
2021/08/01 01:08:09;;;;;;;5.25;1.25;;;;;;;;;;5047948;28;20036;-70
2021/08/01 01:10:42;;;;;;;2.13;1.30;;;;;;;;;;5071594;28;20028;-72
2021/08/01 01:13:10;;;;;;;2.75;1.05;;;;;;;;;;5061953;28;20788;-70
2021/08/01 01:15:45;;;;;;;4.95;1.35;;;;;;;;;;5037965;28;20033;-72
2021/08/01 01:18:18;;;;;;;7.78;1.75;;;;;;;;;;5046574;28;20017;-70
2021/08/01 01:20:58;;;;;;;3.65;1.02;;;;;;;;;;5051554;28;20021;-71
2021/08/01 01:23:36;;;;;;;3.15;1.02;;;;;;;;;;5044814;28;20486;-71
2021/08/01 01:26:05;;;;;;;5.05;0.95;;;;;;;;;;5051123;28;20032;-70
2021/08/01 01:28:44;;;;;;;3.45;1.08;;;;;;;;;;5047299;28;20021;-70
2021/08/01 01:31:15;;;;;;;6.28;1.00;;;;;;;;;;5051614;28;20522;-71
2021/08/01 01:34:09;;;;;;;2.45;0.98;;;;;;;;;;5047851;28;20144;-71
2021/08/01 01:36:37;;;;;;;4.80;1.23;;;;;;;;;;5020936;28;20136;-70
2021/08/01 01:39:06;;;;;;;5.65;1.15;;;;;;;;;;5049471;28;20153;-71
2021/08/01 01:41:33;;;;;;;4.50;1.63;;;;;;;;;;5055152;28;20482;-71
2021/08/01 01:44:00;;;;;;;3.25;0.85;;;;;;;;;;5051923;28;20052;-71
2021/08/01 01:46:27;;;;;;;3.22;1.63;;;;;;;;;;5055319;28;20527;-72
2021/08/01 01:48:56;;;;;;;4.50;1.15;;;;;;;;;;5053060;28;20048;-71
2021/08/01 01:51:23;;;;;;;2.90;0.90;;;;;;;;;;5054616;28;20083;-71
2021/08/01 01:53:50;;;;;;;6.03;1.00;;;;;;;;;;5046251;28;20060;-71
2021/08/01 01:56:18;;;;;;;4.40;1.10;;;;;;;;;;5055250;28;20017;-71
2021/08/01 01:58:45;;;;;;;3.53;1.42;;;;;;;;;;5052881;28;20135;-71
2021/08/01 02:01:12;;;;;;;2.67;0.82;;;;;;;;;;5053775;28;20079;-70
2021/08/01 02:03:39;;;;;;;4.85;0.88;;;;;;;;;;5053970;28;20035;-71
2021/08/01 02:06:06;;;;;;;4.07;1.55;;;;;;;;;;5054921;28;20477;-71
2021/08/01 02:08:40;;;;;;;4.97;1.13;;;;;;;;;;5051252;28;20037;-70
2021/08/01 02:11:07;;;;;;;;;;;;;;;;;;5049099;28;20029;-72
2021/08/01 02:13:45;;;;;;;4.07;1.33;;;;;;;;;;5052890;28;20003;-72
2021/08/01 02:16:13;;;;;;;4.93;1.05;;;;;;;;;;5035816;28;20052;-71
2021/08/01 02:18:45;;;;;;;5.50;1.27;;;;;;;;;;5040615;28;20025;-71
2021/08/01 02:21:12;;;;;;;2.80;1.20;;;;;;;;;;5051545;28;20037;-71
2021/08/01 02:23:43;;;;;;;4.00;1.10;;;;;;;;;;5052490;28;20032;-70
2021/08/01 02:26:13;;;;;;;3.38;1.23;;;;;;;;;;5053126;28;20087;-71
2021/08/01 02:28:42;;;;;;;4.45;1.17;;;;;;;;;;5052337;28;20027;-72
2021/08/01 02:31:10;;;;;;;4.25;0.95;;;;;;;;;;5052879;28;20041;-72
2021/08/01 02:33:37;;;;;;;3.67;1.05;;;;;;;;;;5052188;28;20025;-72
2021/08/01 02:36:05;;;;;;;3.35;1.45;;;;;;;;;;5052735;28;20103;-71
2021/08/01 02:38:33;;;;;;;2.35;0.98;;;;;;;;;;5053019;28;20029;-72
2021/08/01 02:41:03;;;;;;;2.97;0.85;;;;;;;;;;5048493;28;20389;-71
2021/08/01 02:43:31;;;;;;;3.05;1.00;;;;;;;;;;5051307;28;20028;-71
2021/08/01 02:45:59;;;;;;;3.75;1.00;;;;;;;;;;5054222;28;20025;-71
2021/08/01 02:48:28;;;;;;;3.67;1.27;;;;;;;;;;5052075;28;20029;-71
2021/08/01 02:51:00;;;;;;;4.72;2.03;;;;;;;;;;5052727;28;20033;-71
2021/08/01 02:53:29;;;;;;;4.25;1.08;;;;;;;;;;5051272;28;20485;-70
2021/08/01 02:55:57;;;;;;;2.97;1.08;;;;;;;;;;5053309;28;20028;-72
2021/08/01 02:58:26;;;;;;;5.35;1.50;;;;;;;;;;5047147;28;20079;-71
2021/08/01 03:00:54;;;;;;;3.45;1.20;;;;;;;;;;5048098;28;20033;-71
2021/08/01 03:03:22;;;;;;;4.90;1.13;;;;;;;;;;5040719;28;20553;-72
2021/08/01 03:05:49;;;;;;;4.30;1.05;;;;;;;;;;5052423;28;20028;-71
2021/08/01 03:08:17;;;;;;;4.45;0.82;;;;;;;;;;5051459;28;20385;-70
2021/08/01 03:10:44;;;;;;;4.43;0.70;;;;;;;;;;5053160;28;20087;-71
2021/08/01 03:13:11;;;;;;;3.00;0.90;;;;;;;;;;5052545;28;20111;-70
2021/08/01 03:15:39;;;;;;;4.05;1.30;;;;;;;;;;5052104;28;20462;-70
2021/08/01 03:18:06;;;;;;;8.23;2.08;;;;;;;;;;5051411;28;20100;-71
2021/08/01 03:20:33;;;;;;;2.55;0.88;;;;;;;;;;5053760;28;20021;-70
2021/08/01 03:23:00;;;;;;;5.10;1.48;;;;;;;;;;5051998;28;20534;-71
2021/08/01 03:25:28;;;;;;;5.57;1.20;;;;;;;;;;5053392;28;20091;-71
2021/08/01 03:27:55;;;;;;;3.70;1.55;;;;;;;;;;5051107;28;20025;-71
2021/08/01 03:30:22;;;;;;;3.65;0.80;;;;;;;;;;5049710;28;20124;-72
2021/08/01 03:32:49;;;;;;;4.47;1.05;;;;;;;;;;5047481;28;20044;-72
2021/08/01 03:35:16;;;;;;;3.05;0.77;;;;;;;;;;5050765;28;20385;-71
2021/08/01 03:37:43;;;;;;;3.08;0.73;;;;;;;;;;5050149;28;20052;-71
2021/08/01 03:40:11;;;;;;;2.42;0.60;;;;;;;;;;5052305;28;20353;-71
2021/08/01 03:42:38;;;;;;;6.35;1.77;;;;;;;;;;5052281;28;20025;-71
2021/08/01 03:45:05;;;;;;;14.13;2.95;;;;;;;;;;5051852;28;20021;-71
2021/08/01 03:47:32;;;;;;;9.27;2.67;;;;;;;;;;5052945;28;20100;-71
2021/08/01 03:49:59;;;;;;;12.27;2.25;;;;;;;;;;5046175;28;20045;-71
2021/08/01 03:52:26;;;;;;;9.02;1.90;;;;;;;;;;5052960;28;20051;-71
2021/08/01 03:54:56;;;;;;;18.08;3.95;;;;;;;;;;5049808;28;20028;-71
2021/08/01 03:57:24;;;;;;;14.98;2.92;;;;;;;;;;5033506;28;20026;-72
2021/08/01 03:59:51;;;;;;;13.32;2.33;;;;;;;;;;5049392;28;20036;-71
2021/08/01 04:02:18;;;;;;;1.67;0.30;;;;;;;;;;5052269;28;20052;-71
2021/08/01 04:04:45;;;;;;;3.70;0.30;;;;;;;;;;5050730;28;20447;-72
2021/08/01 04:07:12;;;;;;;3.05;0.75;;;;;;;;;;5052647;28;20466;-71
2021/08/01 04:09:39;;;;;;;1.83;0.30;;;;;;;;;;5051251;28;20036;-71
2021/08/01 04:12:07;;;;;;;2.72;0.20;;;;;;;;;;5047710;28;20040;-70
2021/08/01 04:14:34;;;;;;;1.05;0.30;;;;;;;;;;5048700;28;20497;-71
2021/08/01 04:17:01;;;;;;;0.77;0.17;;;;;;;;;;5052622;28;20592;-71
2021/08/01 04:19:28;;;;;;;3.03;0.82;;;;;;;;;;5046226;28;20039;-71
2021/08/01 04:21:55;;;;;;;0.77;0.10;;;;;;;;;;5041077;28;20025;-70
2021/08/01 04:24:22;;;;;;;1.83;0.20;;;;;;;;;;5050660;28;20461;-70
2021/08/01 04:26:50;;;;;;;2.67;0.30;;;;;;;;;;5050078;28;20029;-71
2021/08/01 04:29:17;;;;;;;3.33;0.30;;;;;;;;;;5047434;28;20033;-71
2021/08/01 04:31:44;;;;;;;2.25;0.10;;;;;;;;;;5051943;28;20021;-72
2021/08/01 04:34:11;;;;;;;2.88;0.30;;;;;;;;;;5050118;28;20029;-72
2021/08/01 04:36:50;;;;;;;1.05;0.10;;;;;;;;;;5020079;28;20049;-72
2021/08/01 04:39:17;;;;;;;2.03;0.32;;;;;;;;;;5050228;28;20033;-71
2021/08/01 04:41:47;;;;;;;2.63;0.20;;;;;;;;;;5052163;28;20055;-72
2021/08/01 04:44:14;;;;;;;1.48;0.30;;;;;;;;;;5040636;28;20467;-71
2021/08/01 04:46:41;;;;;;;0.90;0.43;;;;;;;;;;5043253;28;20029;-70
2021/08/01 04:49:09;;;;;;;0.55;0.50;;;;;;;;;;5047680;28;20481;-71
2021/08/01 04:51:36;;;;;;;1.10;0.10;;;;;;;;;;5032810;28;20026;-71
2021/08/01 04:54:03;;;;;;;0.70;0.10;;;;;;;;;;5041914;28;20071;-71
2021/08/01 04:56:30;;;;;;;0.82;0.10;;;;;;;;;;5048597;28;20382;-71
2021/08/01 04:58:57;;;;;;;3.35;0.25;;;;;;;;;;5049067;28;20044;-71
2021/08/01 05:01:24;;;;;;;0.20;0.10;;;;;;;;;;5051653;28;20036;-71
2021/08/01 05:03:51;;;;;;;4.45;1.00;;;;;;;;;;5049426;28;20036;-71
2021/08/01 05:06:18;;;;;;;0.77;0.20;;;;;;;;;;5052253;28;20370;-72
2021/08/01 05:08:46;;;;;;;1.13;0.20;;;;;;;;;;5048910;28;20021;-72
2021/08/01 05:11:13;;;;;;;0.40;0.10;;;;;;;;;;5047200;28;20474;-68
2021/08/01 05:13:40;;;;;;;1.75;0.10;;;;;;;;;;5043660;28;20036;-68
2021/08/01 05:16:07;;;;;;;1.45;0.30;;;;;;;;;;5046723;28;20017;-68
2021/08/01 05:18:34;;;;;;;0.80;0.10;;;;;;;;;;5048878;28;20021;-67
2021/08/01 05:21:01;;;;;;;0.85;0.10;;;;;;;;;;5044470;28;20067;-67
2021/08/01 05:23:28;;;;;;;0.60;0.05;;;;;;;;;;5043247;28;20482;-70
2021/08/01 05:25:57;;;;;;;1.25;0.57;;;;;;;;;;5036934;28;20444;-69
2021/08/01 05:28:24;;;;;;;0.68;0.10;;;;;;;;;;5045734;28;20358;-68
2021/08/01 05:30:51;;;;;;;2.05;0.10;;;;;;;;;;5043835;28;20037;-70
2021/08/01 05:33:19;;;;;;;1.30;0.38;;;;;;;;;;5045493;28;20020;-70
2021/08/01 05:35:46;;;;;;;0.28;0.15;;;;;;;;;;5046410;28;20124;-70
2021/08/01 05:38:14;;;;;;;0.20;0.13;;;;;;;;;;5043887;28;20385;-70
2021/08/01 05:40:44;;;;;;;0.28;0.10;;;;;;;;;;5048167;28;20013;-67
2021/08/01 05:43:11;;;;;;;0.00;0.00;;;;;;;;;;5044573;28;20166;-71
2021/08/01 05:45:38;;;;;;;0.95;0.00;;;;;;;;;;5045401;28;20047;-70
2021/08/01 05:48:05;;;;;;;0.15;0.05;;;;;;;;;;5046306;28;20398;-71
2021/08/01 05:50:33;;;;;;;1.65;0.10;;;;;;;;;;5040739;28;20496;-70
2021/08/01 05:53:00;;;;;;;0.52;0.10;;;;;;;;;;5046683;28;20132;-71
2021/08/01 05:55:27;;;;;;;1.85;0.10;;;;;;;;;;5046310;28;20032;-72
2021/08/01 05:57:54;;;;;;;0.47;0.03;;;;;;;;;;5046609;28;20134;-72
2021/08/01 06:00:21;;;;;;;1.40;0.20;;;;;;;;;;5048911;28;20033;-72
2021/08/01 06:02:48;;;;;;;2.97;0.20;;;;;;;;;;5046061;28;20471;-72
2021/08/01 06:05:15;;;;;;;1.42;0.13;;;;;;;;;;5045685;28;20017;-73
2021/08/01 06:07:42;;;;;;;0.30;0.03;;;;;;;;;;5039725;28;20031;-71
2021/08/01 06:10:09;;;;;;;0.30;0.10;;;;;;;;;;5050030;28;20033;-72
2021/08/01 06:12:37;;;;;;;0.30;0.10;;;;;;;;;;5049802;28;20025;-71
2021/08/01 06:15:04;;;;;;;1.30;0.25;;;;;;;;;;5039832;28;20026;-72
2021/08/01 06:17:31;;;;;;;0.25;0.10;;;;;;;;;;5037632;28;20021;-71
2021/08/01 06:19:58;;;;;;;0.88;0.10;;;;;;;;;;5049710;28;20460;-71
2021/08/01 06:22:26;;;;;;;0.47;0.20;;;;;;;;;;5046186;28;20024;-73
2021/08/01 06:24:53;;;;;;;0.75;0.10;;;;;;;;;;5050000;28;20025;-73
2021/08/01 06:27:20;;;;;;;0.50;0.10;;;;;;;;;;5051992;28;21074;-71
2021/08/01 06:29:47;;;;;;;0.40;0.10;;;;;;;;;;5048510;28;20033;-72
2021/08/01 06:32:14;;;;;;;0.00;0.00;;;;;;;;;;5051925;28;20013;-72
2021/08/01 06:34:41;;;;;;;0.40;0.10;;;;;;;;;;5049075;28;20025;-71
2021/08/01 06:37:09;;;;;;;0.80;0.10;;;;;;;;;;5049683;28;20461;-72
2021/08/01 06:39:36;;;;;;;0.70;0.17;;;;;;;;;;5052019;28;20029;-72
2021/08/01 06:42:03;;;;;;;1.17;0.30;;;;;;;;;;5051342;28;20033;-70
2021/08/01 06:44:30;;;;;;;0.40;0.20;;;;;;;;;;5051755;28;20408;-71
2021/08/01 06:46:57;;;;;;;0.57;0.10;;;;;;;;;;5051982;28;20048;-72
2021/08/01 06:49:24;;;;;;;0.88;0.20;;;;;;;;;;5045643;28;20037;-71
2021/08/01 06:51:51;;;;;;;0.30;0.13;;;;;;;;;;5051602;28;20091;-72
2021/08/01 06:54:18;;;;;;;0.40;0.30;;;;;;;;;;5044103;28;20381;-72
2021/08/01 06:56:45;;;;;;;2.60;0.60;;;;;;;;;;5045341;28;20205;-73
2021/08/01 06:59:13;;;;;;;2.00;0.60;;;;;;;;;;5042917;28;20028;-70
2021/08/01 07:01:40;;;;;;;0.70;0.20;;;;;;;;;;5053555;28;20097;-72
2021/08/01 07:04:07;;;;;;;0.30;0.10;;;;;;;;;;5037412;28;20489;-72
2021/08/01 07:06:34;;;;;;;0.82;0.20;;;;;;;;;;5038626;28;20382;-72
2021/08/01 07:09:01;;;;;;;0.60;0.20;;;;;;;;;;5037499;28;20049;-72
2021/08/01 07:11:29;;;;;;;0.15;0.10;;;;;;;;;;5044671;28;20052;-72
2021/08/01 07:13:56;;;;;;;0.52;0.20;;;;;;;;;;5043092;28;22283;-71
2021/08/01 07:16:24;;;;;;;0.45;0.10;;;;;;;;;;5054237;28;20021;-71
2021/08/01 07:18:51;;;;;;;1.10;0.13;;;;;;;;;;5036608;28;20041;-72
2021/08/01 07:21:18;;;;;;;1.90;0.70;;;;;;;;;;5045615;28;20032;-72
2021/08/01 07:23:45;;;;;;;2.95;1.85;;;;;;;;;;5039577;28;20083;-70
2021/08/01 07:26:12;;;;;;;0.70;0.40;;;;;;;;;;5048734;28;20021;-70
2021/08/01 07:28:39;;;;;;;1.70;0.70;;;;;;;;;;5052886;28;20010;-71
2021/08/01 07:31:09;;;;;;;4.28;3.63;;;;;;;;;;5044221;28;20037;-71
2021/08/01 07:33:36;;;;;;;17.58;11.82;;;;;;;;;;5057160;28;20021;-71
2021/08/01 07:36:03;;;;;;;5.10;4.43;;;;;;;;;;5056844;28;20045;-71
2021/08/01 07:38:30;;;;;;;1.67;0.50;;;;;;;;;;5050537;28;20025;-70
2021/08/01 07:40:57;;;;;;;1.10;0.50;;;;;;;;;;5045332;28;20037;-71
2021/08/01 07:43:25;;;;;;;1.50;0.70;;;;;;;;;;5044765;28;20040;-71
2021/08/01 07:45:52;;;;;;;1.83;0.85;;;;;;;;;;5034872;28;20051;-72
2021/08/01 07:48:19;;;;;;;3.45;0.80;;;;;;;;;;5035132;28;20493;-72
2021/08/01 07:50:46;;;;;;;0.20;0.10;;;;;;;;;;5042401;28;20038;-72
2021/08/01 07:53:13;;;;;;;0.90;0.20;;;;;;;;;;5034518;28;20394;-71
2021/08/01 07:55:42;;;;;;;1.30;0.50;;;;;;;;;;5048084;28;20075;-71
2021/08/01 07:58:09;;;;;;;9.45;1.48;;;;;;;;;;5042871;28;20050;-71
2021/08/01 08:00:36;;;;;;;9.25;1.92;;;;;;;;;;5042300;28;20112;-70
2021/08/01 08:03:03;;;;;;;11.88;2.38;;;;;;;;;;5048539;28;20013;-71
2021/08/01 08:05:30;;;;;;;16.20;1.73;;;;;;;;;;5039653;28;20029;-71
2021/08/01 08:07:58;;;;;;;12.93;2.17;;;;;;;;;;5031879;28;20025;-70
2021/08/01 08:10:25;;;;;;;15.80;2.15;;;;;;;;;;5055035;28;20419;-70
2021/08/01 08:12:52;;;;;;;13.38;1.90;;;;;;;;;;5051840;28;20044;-69
2021/08/01 08:15:19;;;;;;;14.98;2.08;;;;;;;;;;5036934;28;20036;-69
2021/08/01 08:17:46;;;;;;;11.00;1.70;;;;;;;;;;5054054;28;20021;-70
2021/08/01 08:20:14;;;;;;;15.05;2.03;;;;;;;;;;5037781;28;20088;-70
2021/08/01 08:22:41;;;;;;;16.20;1.80;;;;;;;;;;5050212;28;20037;-71
2021/08/01 08:25:09;;;;;;;14.10;1.80;;;;;;;;;;5038312;28;20033;-72
2021/08/01 08:27:36;;;;;;;10.95;1.65;;;;;;;;;;5038133;28;20037;-72
2021/08/01 08:30:04;;;;;;;8.93;1.83;;;;;;;;;;5052085;28;20043;-72
2021/08/01 08:32:33;;;;;;;17.17;3.10;;;;;;;;;;5041870;28;20478;-72
2021/08/01 08:35:00;;;;;;;14.00;1.85;;;;;;;;;;5046629;28;20489;-72
2021/08/01 08:37:27;;;;;;;11.88;1.67;;;;;;;;;;5039345;28;20072;-71
2021/08/01 08:39:54;;;;;;;12.30;1.52;;;;;;;;;;5050117;28;20481;-71
2021/08/01 08:42:22;;;;;;;13.25;1.55;;;;;;;;;;5046408;28;20041;-71
2021/08/01 08:44:50;;;;;;;15.23;2.42;;;;;;;;;;5038712;28;20386;-71
2021/08/01 08:47:20;;;;;;;7.68;1.60;;;;;;;;;;5048756;28;20087;-72
2021/08/01 08:49:51;;;;;;;15.10;2.60;;;;;;;;;;5043965;28;20032;-71
2021/08/01 08:52:18;;;;;;;13.95;2.15;;;;;;;;;;5034032;28;20057;-70
2021/08/01 08:54:52;;;;;;;12.52;1.88;;;;;;;;;;5044103;28;20104;-70
2021/08/01 08:57:29;;;;;;;8.80;1.67;;;;;;;;;;5051136;28;20493;-70
2021/08/01 09:00:00;;;;;;;19.20;2.90;;;;;;;;;;5040242;28;20076;-71
2021/08/01 09:02:28;;;;;;;15.88;6.28;;;;;;;;;;5032333;28;20034;-72
2021/08/01 09:04:57;;;;;;;18.10;6.95;;;;;;;;;;5032717;28;20030;-71
2021/08/01 09:07:24;;;;;;;13.05;2.35;;;;;;;;;;5046604;28;20024;-70
2021/08/01 09:09:51;;;;;;;17.23;7.40;;;;;;;;;;5038935;28;20044;-70
2021/08/01 09:12:18;;;;;;;8.43;1.63;;;;;;;;;;5036537;28;20044;-71
2021/08/01 09:14:46;;;;;;;9.95;1.52;;;;;;;;;;5051417;28;20025;-71
2021/08/01 09:17:14;;;;;;;7.13;1.10;;;;;;;;;;5051427;28;20026;-70
2021/08/01 09:19:44;;;;;;;13.20;1.17;;;;;;;;;;5051104;28;20051;-70
2021/08/01 09:22:12;;;;;;;10.30;1.63;;;;;;;;;;5046809;28;20052;-71
2021/08/01 09:24:39;;;;;;;6.90;1.30;;;;;;;;;;5037307;28;20108;-71
2021/08/01 09:27:07;;;;;;;14.25;1.85;;;;;;;;;;5051929;28;20025;-71
2021/08/01 09:29:48;;;;;;;9.10;1.13;;;;;;;;;;5033582;28;20385;-71
2021/08/01 09:32:15;;;;;;;8.85;1.10;;;;;;;;;;5041418;28;20067;-70
2021/08/01 09:34:46;;;;;;;13.60;1.42;;;;;;;;;;5049011;28;20025;-72
2021/08/01 09:37:13;;;;;;;9.60;1.45;;;;;;;;;;5050416;28;20068;-71
2021/08/01 09:39:43;;;;;;;6.20;0.90;;;;;;;;;;5036733;28;20033;-72
2021/08/01 09:42:12;;;;;;;8.93;1.05;;;;;;;;;;5035387;28;20433;-72
2021/08/01 09:44:40;;;;;;;5.60;1.25;;;;;;;;;;5048869;28;20087;-71
2021/08/01 09:47:08;;;;;;;6.57;1.10;;;;;;;;;;5042425;28;20080;-71
2021/08/01 09:49:35;;;;;;;18.15;1.73;;;;;;;;;;5034505;28;20413;-71
2021/08/01 09:52:03;;;;;;;5.68;0.80;;;;;;;;;;5033715;28;20021;-69
2021/08/01 09:54:50;;;;;;;9.10;1.95;;;;;;;;;;5042681;28;20032;-71
2021/08/01 09:57:18;;;;;;;12.68;1.30;;;;;;;;;;5050742;28;20080;-70
2021/08/01 09:59:48;;;;;;;9.95;1.17;;;;;;;;;;5039614;28;20036;-71
2021/08/01 10:02:15;;;;;;;7.53;1.00;;;;;;;;;;5053615;28;20028;-71
2021/08/01 10:04:42;;;;;;;7.40;1.80;;;;;;;;;;5054121;28;20037;-70
2021/08/01 10:07:11;;;;;;;9.13;0.98;;;;;;;;;;5038098;28;20508;-70
2021/08/01 10:09:39;;;;;;;7.68;1.00;;;;;;;;;;5039884;28;20032;-71
2021/08/01 10:12:07;;;;;;;8.45;0.80;;;;;;;;;;5050876;28;20025;-71
2021/08/01 10:14:34;;;;;;;6.50;1.48;;;;;;;;;;5056285;28;20038;-71
2021/08/01 10:17:02;;;;;;;8.07;1.05;;;;;;;;;;5047218;28;20486;-71
2021/08/01 10:19:29;;;;;;;9.73;0.85;;;;;;;;;;5035395;28;20030;-71
2021/08/01 10:22:06;;;;;;;11.55;0.90;;;;;;;;;;5036031;28;20041;-71
2021/08/01 10:24:41;;;;;;;13.55;2.08;;;;;;;;;;5043006;28;20055;-72
2021/08/01 10:27:09;;;;;;;8.55;1.42;;;;;;;;;;5049391;28;20036;-71
2021/08/01 10:30:02;;;;;;;10.18;1.38;;;;;;;;;;5050018;28;20060;-72
2021/08/01 10:32:31;;;;;;;17.13;2.50;;;;;;;;;;5040945;28;20037;-71
2021/08/01 10:35:12;;;;;;;10.23;1.20;;;;;;;;;;5036954;28;20017;-72
2021/08/01 10:37:46;;;;;;;3.75;0.80;;;;;;;;;;5037418;28;20076;-72
2021/08/01 10:40:17;;;;;;;11.68;1.10;;;;;;;;;;5034629;28;20163;-71
2021/08/01 10:42:48;;;;;;;6.82;1.10;;;;;;;;;;5039451;28;20026;-72
2021/08/01 10:45:19;;;;;;;10.10;1.60;;;;;;;;;;5041699;28;20013;-71
2021/08/01 10:47:48;;;;;;;8.50;0.60;;;;;;;;;;5053890;28;20038;-72
2021/08/01 10:50:18;;;;;;;5.30;0.93;;;;;;;;;;5045549;28;20025;-71
2021/08/01 10:52:45;;;;;;;4.78;0.55;;;;;;;;;;5057894;28;20051;-70
2021/08/01 10:55:21;;;;;;;5.38;0.77;;;;;;;;;;5034856;28;20108;-71
2021/08/01 10:58:07;;;;;;;7.45;0.50;;;;;;;;;;5038925;28;20025;-71
2021/08/01 11:00:54;;;;;;;4.13;0.50;;;;;;;;;;5044438;28;20033;-71
2021/08/01 11:03:22;;;;;;;4.30;0.30;;;;;;;;;;5007918;28;20406;-72
2021/08/01 11:05:50;;;;;;;6.15;0.77;;;;;;;;;;5050699;28;20025;-71
2021/08/01 11:08:17;;;;;;;6.20;0.45;;;;;;;;;;5042517;28;20474;-70
2021/08/01 11:10:44;;;;;;;6.85;0.50;;;;;;;;;;5042573;28;20069;-71
2021/08/01 11:13:38;;;;;;;3.35;0.50;;;;;;;;;;5041139;28;20027;-71
2021/08/01 11:16:08;;;;;;;3.80;0.43;;;;;;;;;;5051384;28;20064;-70
2021/08/01 11:18:36;;;;;;;3.45;0.45;;;;;;;;;;5053137;28;20382;-70
2021/08/01 11:21:04;;;;;;;3.53;0.28;;;;;;;;;;5041285;28;20504;-71
2021/08/01 11:24:00;;;;;;;2.88;0.50;;;;;;;;;;5050073;28;20033;-70
2021/08/01 11:26:28;;;;;;;5.68;0.40;;;;;;;;;;5053587;28;20076;-70
2021/08/01 11:29:06;;;;;;;5.82;0.50;;;;;;;;;;5043475;28;20028;-71
2021/08/01 11:31:33;;;;;;;5.22;0.73;;;;;;;;;;5039289;28;20481;-70
2021/08/01 11:34:20;;;;;;;2.85;0.50;;;;;;;;;;5039314;28;20087;-69
2021/08/01 11:36:48;;;;;;;2.08;0.43;;;;;;;;;;5046412;28;20750;-70
2021/08/01 11:39:16;;;;;;;5.07;1.10;;;;;;;;;;5043673;28;20025;-71
2021/08/01 11:41:44;;;;;;;5.00;0.55;;;;;;;;;;5049424;28;20013;-71
2021/08/01 11:44:22;;;;;;;4.97;0.60;;;;;;;;;;5046305;28;20021;-71
2021/08/01 11:47:08;;;;;;;7.35;0.35;;;;;;;;;;5061183;28;20052;-70
2021/08/01 11:49:35;;;;;;;3.85;0.60;;;;;;;;;;5037192;28;20744;-70
2021/08/01 11:52:04;;;;;;;3.42;0.60;;;;;;;;;;5049477;28;20677;-69
2021/08/01 11:54:38;;;;;;;2.10;0.35;;;;;;;;;;5048066;28;20021;-69
2021/08/01 11:57:05;;;;;;;6.97;0.70;;;;;;;;;;5046107;28;20017;-70
2021/08/01 11:59:33;;;;;;;5.20;0.73;;;;;;;;;;5042390;28;20433;-69
2021/08/01 12:02:01;;;;;;;5.57;1.00;;;;;;;;;;5035260;28;20021;-70
2021/08/01 12:04:28;;;;;;;4.57;0.55;;;;;;;;;;5046622;28;20041;-70
2021/08/01 12:06:56;;;;;;;5.15;0.77;;;;;;;;;;5039995;28;20090;-69
2021/08/01 12:09:23;;;;;;;4.13;0.60;;;;;;;;;;5046441;28;20100;-70
2021/08/01 12:11:52;;;;;;;2.20;0.60;;;;;;;;;;5040487;28;20124;-70
2021/08/01 12:14:19;;;;;;;6.25;0.95;;;;;;;;;;5046092;28;20021;-70
2021/08/01 12:17:21;;;;;;;4.65;0.80;;;;;;;;;;5039431;28;20026;-70
2021/08/01 12:19:50;;;;;;;5.47;0.82;;;;;;;;;;4988476;28;20034;-70
2021/08/01 12:22:18;;;;;;;3.15;0.70;;;;;;;;;;5039514;28;20063;-70
2021/08/01 12:24:47;;;;;;;8.60;0.75;;;;;;;;;;5042471;28;20025;-68
2021/08/01 12:27:21;;;;;;;7.22;0.90;;;;;;;;;;5047224;28;20049;-70
2021/08/01 12:29:47;;;;;;;;;;;;;;;;;;5036757;28;20113;-71
2021/08/01 12:32:18;;;;;;;3.40;0.57;;;;;;;;;;5041822;28;20391;-70
2021/08/01 12:34:45;;;;;;;2.55;0.50;;;;;;;;;;5042932;28;20131;-70
2021/08/01 12:37:13;;;;;;;2.63;1.00;;;;;;;;;;5043255;28;20041;-70
2021/08/01 12:39:44;;;;;;;3.38;0.70;;;;;;;;;;5043060;28;20025;-70
2021/08/01 12:42:11;;;;;;;5.07;0.60;;;;;;;;;;5051139;28;20025;-70
2021/08/01 12:44:49;;;;;;;3.58;0.60;;;;;;;;;;5046716;28;20037;-71
2021/08/01 12:47:16;;;;;;;3.67;0.65;;;;;;;;;;5047374;28;20017;-70
2021/08/01 12:49:44;;;;;;;3.55;0.63;;;;;;;;;;5047565;28;20048;-70
2021/08/01 12:52:11;;;;;;;4.20;0.90;;;;;;;;;;5045672;28;20032;-70
2021/08/01 12:54:38;;;;;;;6.35;1.10;;;;;;;;;;5061205;28;20124;-71
2021/08/01 12:57:06;;;;;;;4.93;1.10;;;;;;;;;;5038930;28;20017;-70
2021/08/01 12:59:34;;;;;;;3.20;0.60;;;;;;;;;;5038144;28;20528;-70
2021/08/01 13:02:01;;;;;;;6.80;0.68;;;;;;;;;;5038456;28;20031;-70
2021/08/01 13:04:39;;;;;;;4.57;0.75;;;;;;;;;;5051151;28;20021;-70
2021/08/01 13:07:06;;;;;;;3.42;0.63;;;;;;;;;;5047449;28;20044;-70
2021/08/01 13:09:33;;;;;;;2.35;0.52;;;;;;;;;;5042136;28;20481;-70
2021/08/01 13:12:10;;;;;;;2.08;0.50;;;;;;;;;;5040784;28;20035;-70
2021/08/01 13:14:38;;;;;;;3.22;0.40;;;;;;;;;;5035893;28;20051;-69
2021/08/01 13:17:05;;;;;;;2.75;0.60;;;;;;;;;;5047011;28;20405;-70
2021/08/01 13:19:42;;;;;;;5.03;0.88;;;;;;;;;;5032852;28;20041;-71
2021/08/01 13:22:14;;;;;;;2.08;0.43;;;;;;;;;;5045752;28;20028;-71
2021/08/01 13:24:43;;;;;;;3.47;0.63;;;;;;;;;;5043138;28;20386;-70
2021/08/01 13:27:11;;;;;;;2.97;0.80;;;;;;;;;;5039701;28;20021;-71
2021/08/01 13:29:38;;;;;;;3.03;0.60;;;;;;;;;;5041247;28;20036;-70
2021/08/01 13:32:11;;;;;;;5.63;0.88;;;;;;;;;;5051518;28;20036;-70
2021/08/01 13:34:46;;;;;;;4.75;1.00;;;;;;;;;;5044035;28;20029;-71
2021/08/01 13:37:12;;;;;;;;;;;;;;;;;;5047709;28;20513;-71
2021/08/01 13:39:39;;;;;;;2.88;0.85;;;;;;;;;;5040612;28;20327;-71
2021/08/01 13:42:11;;;;;;;6.07;0.70;;;;;;;;;;5051305;28;20544;-70
2021/08/01 13:44:39;;;;;;;3.42;0.63;;;;;;;;;;5052225;28;20059;-70
2021/08/01 13:47:12;;;;;;;3.65;0.60;;;;;;;;;;5054678;28;20482;-70
2021/08/01 13:49:41;;;;;;;6.43;1.00;;;;;;;;;;5066132;28;20075;-70
2021/08/01 13:52:09;;;;;;;3.78;0.57;;;;;;;;;;5050450;28;20500;-70
2021/08/01 13:54:36;;;;;;;2.80;0.40;;;;;;;;;;5053159;28;20108;-70
2021/08/01 13:57:08;;;;;;;5.95;0.70;;;;;;;;;;5053465;28;20086;-69
2021/08/01 13:59:35;;;;;;;2.83;0.60;;;;;;;;;;5051159;28;20068;-70
2021/08/01 14:02:02;;;;;;;7.45;1.05;;;;;;;;;;5040746;28;20025;-70
2021/08/01 14:04:32;;;;;;;3.42;0.75;;;;;;;;;;5052602;28;20021;-70
2021/08/01 14:06:59;;;;;;;3.05;0.70;;;;;;;;;;5054120;28;20059;-70
2021/08/01 14:09:26;;;;;;;2.95;0.80;;;;;;;;;;5048537;28;20021;-69
2021/08/01 14:11:53;;;;;;;4.63;1.00;;;;;;;;;;5054318;28;20033;-70
2021/08/01 14:14:21;;;;;;;1.13;0.50;;;;;;;;;;5042710;28;20029;-70
2021/08/01 14:16:49;;;;;;;1.88;0.50;;;;;;;;;;5042332;28;20508;-70
2021/08/01 14:19:17;;;;;;;3.22;0.60;;;;;;;;;;5052028;28;20221;-71
2021/08/01 14:21:45;;;;;;;4.97;1.17;;;;;;;;;;5054308;28;20024;-70
2021/08/01 14:24:12;;;;;;;3.38;0.60;;;;;;;;;;5051430;28;20497;-70
2021/08/01 14:26:40;;;;;;;2.05;0.45;;;;;;;;;;5054076;28;20033;-70
2021/08/01 14:29:09;;;;;;;4.07;0.63;;;;;;;;;;5051084;28;20116;-70
2021/08/01 14:31:38;;;;;;;5.63;1.35;;;;;;;;;;5053238;28;20032;-70
2021/08/01 14:34:07;;;;;;;4.30;0.88;;;;;;;;;;5051477;28;20020;-70
2021/08/01 14:36:35;;;;;;;2.15;0.57;;;;;;;;;;5053056;28;20048;-70
2021/08/01 14:39:06;;;;;;;4.03;1.33;;;;;;;;;;5050452;28;20028;-71
2021/08/01 14:41:35;;;;;;;3.80;0.60;;;;;;;;;;5052382;28;20359;-70
2021/08/01 14:44:03;;;;;;;3.67;0.80;;;;;;;;;;5050343;28;20487;-70
2021/08/01 14:46:33;;;;;;;2.42;1.00;;;;;;;;;;5053761;28;20033;-71
2021/08/01 14:49:25;;;;;;;2.60;0.70;;;;;;;;;;5042908;28;20190;-71
2021/08/01 14:54:31;;;;;;;4.15;0.93;;;;;;;;;;5050573;28;20464;-70
2021/08/01 14:57:04;;;;;;;4.32;0.85;;;;;;;;;;5051316;28;20117;-71
2021/08/01 14:59:33;;;;;;;3.90;0.50;;;;;;;;;;5049121;28;20573;-70